Nashville, TN (37219)

10:25 PM CDT on August 04, 2015 (GMT -0500)
APRSWXNET | | Change Station
CLOSE
Current Station
Personal Weather Station
Location: Nashville, TN
Elevation: 728 ft
Nearby Weather Stations

Elev 728 ft 36.14 °N, 86.80 °W | Updated 20 minutes ago

Partly Cloudy
Partly Cloudy
85 °F
Feels Like 92 °F
N
2
Wind Variable Wind from WNW
Gusts 3.0 mph

Today
High -- | Low -- °F
--% Chance of Precip.
Yesterday
High -- | Low -- °F
Precip. -- in
5:56 AM 7:49 PM
Waning Gibbous, 71% visible
Pressure 30.00 in
Visibility 10.0 miles
Clouds Scattered Clouds 25000 ft
Heat Index 92 °F
Dew Point 73 °F
Humidity 68%
Rainfall in
Snow Depth Not available.
UV 0 out of 12
Pollen 4.70 out of 12
Air Quality Not available.
Flu Activity Not available.
METAR KBNA 050253Z 00000KT 10SM SCT250 29/20 A3002 RMK AO2 SLP158 T02890200 53015

More Conditions Fewer Conditions

Pressure 30.00 in
Visibility 10.0 miles
Clouds Scattered Clouds 25000 ft
Heat Index 92 °F
Dew Point 73 °F
Humidity 68%
Rainfall in
Snow Depth Not available.
UV 0 out of 12
Pollen 4.70 out of 12
Air Quality Not available.
Flu Activity Not available.
METAR KBNA 050253Z 00000KT 10SM SCT250 29/20 A3002 RMK AO2 SLP158 T02890200 53015

More Conditions Fewer Conditions

10-Day Weather Forecast

×

Almanac

Astronomy

Aug. 04, 2015 Rise Set
Actual Time
Civil Twilight
Nautical Twilight
Astronomical Twilight
Moon
Length of Visible Light
Length of Day
Tomorrow will be .
, % of the Moon is Illuminated

Today's Extremes

State Highs State Lows

Community

WunderPhotos

Upload Photos

1,844,088 photos uploaded!

WunderBlogs® & News

Nearby

Air Quality

  Air Quality AQ Index Pollutant
Not available.

Snow Depth

Station Depth Elevation

Earthquake Activity

City Distance Mag. Time & Date
Minimum magnitude displayed is 2.5.

Coastal Water Temperatures

Place Temperature

Stations

Nearby Weather Stations

Station Location Temp. Windchill Dew Point Humidity Wind Precip. Elev Updated Type